createdAt,value
2022-11-09T00:01:17.133Z,7.4
2022-11-09T00:06:19.264Z,7.4
2022-11-09T00:11:21.535Z,7.3
2022-11-09T00:16:24.442Z,7.4
2022-11-09T00:21:26.544Z,7.4
2022-11-09T00:31:29.183Z,7.1
2022-11-09T00:36:31.077Z,7
2022-11-09T00:41:33.090Z,7.1
2022-11-09T00:46:35.689Z,7.1
2022-11-09T00:51:38.043Z,7.1
2022-11-09T00:56:40.006Z,7.1
2022-11-09T01:01:42.009Z,7.1
2022-11-09T01:06:44.180Z,7.2
2022-11-09T01:11:46.210Z,7.2
2022-11-09T01:16:48.517Z,6.9
2022-11-09T01:21:50.624Z,6.9
2022-11-09T01:26:52.928Z,6.9
2022-11-09T01:31:55.387Z,7
2022-11-09T01:36:57.200Z,7
2022-11-09T01:41:59.048Z,6.9
2022-11-09T01:47:01.083Z,6.7
2022-11-09T01:52:08.862Z,6.8
2022-11-09T01:57:14.358Z,6.7
2022-11-09T02:02:06.816Z,6.7
2022-11-09T02:07:23.542Z,6.7
2022-11-09T02:12:21.834Z,6.7
2022-11-09T02:17:27.079Z,6.6
2022-11-09T02:22:29.380Z,6.6
2022-11-09T02:27:31.351Z,6.6
2022-11-09T02:32:33.294Z,6.7
2022-11-09T02:37:35.145Z,6.6
2022-11-09T02:42:37.009Z,6.7
2022-11-09T02:47:38.812Z,6.7
2022-11-09T02:52:40.650Z,6.7
2022-11-09T02:57:42.621Z,6.6
2022-11-09T03:02:44.799Z,6.7
2022-11-09T03:07:46.675Z,6.6
2022-11-09T03:12:48.523Z,6.6
2022-11-09T03:17:50.653Z,6.7
2022-11-09T03:22:53.121Z,6.7
2022-11-09T03:27:55.002Z,6.7
2022-11-09T03:32:57.299Z,6.8
2022-11-09T03:37:59.280Z,6.8
2022-11-09T03:43:01.531Z,6.8
2022-11-09T03:48:03.430Z,6.8
2022-11-09T03:53:05.352Z,6.8
2022-11-09T03:58:07.320Z,6.8
2022-11-09T04:03:09.379Z,6.8
2022-11-09T04:08:11.296Z,6.7
2022-11-09T04:13:13.294Z,6.8
2022-11-09T04:18:15.209Z,6.8
2022-11-09T04:23:18.005Z,6.9
2022-11-09T04:28:20.603Z,6.9
2022-11-09T04:33:23.769Z,6.9
2022-11-09T04:38:25.664Z,6.8
2022-11-09T04:43:27.569Z,7
2022-11-09T04:48:29.816Z,7
2022-11-09T04:53:32.193Z,7
2022-11-09T04:58:34.052Z,7
2022-11-09T05:03:36.047Z,7
2022-11-09T05:08:38.074Z,7.1
2022-11-09T05:13:40.145Z,7.2
2022-11-09T05:18:42.133Z,7.2
2022-11-09T05:23:44.147Z,7.1
2022-11-09T05:28:47.676Z,7.1
2022-11-09T05:33:49.713Z,7.1
2022-11-09T05:38:51.616Z,7.2
2022-11-09T05:43:54.173Z,7.1
2022-11-09T05:48:56.167Z,7.1
2022-11-09T05:53:58.019Z,7.1
2022-11-09T05:59:00.233Z,7.2
2022-11-09T06:04:02.104Z,7.2
2022-11-09T06:09:03.937Z,7.2
2022-11-09T06:14:05.807Z,7.2
2022-11-09T06:19:07.654Z,7.2
2022-11-09T06:24:09.748Z,7.2
2022-11-09T06:29:11.893Z,7.2
2022-11-09T06:34:13.689Z,7.2
2022-11-09T06:39:15.515Z,7.3
2022-11-09T06:44:17.500Z,7.3
2022-11-09T06:49:19.274Z,7.4
2022-11-09T06:54:21.183Z,7.5
2022-11-09T06:59:23.090Z,7.5
2022-11-09T07:04:24.985Z,7.5
2022-11-09T07:09:26.824Z,7.5
2022-11-09T07:14:28.695Z,7.5
2022-11-09T07:19:30.641Z,7.6
2022-11-09T07:24:32.518Z,7.5
2022-11-09T07:29:34.405Z,7.6
2022-11-09T07:34:36.275Z,7.5
2022-11-09T07:39:38.084Z,7.7
2022-11-09T07:44:40.070Z,7.8
2022-11-09T07:49:42.097Z,7.8
2022-11-09T07:54:51.915Z,7.9
2022-11-09T07:59:44.315Z,7.9
2022-11-09T08:04:46.338Z,8
2022-11-09T08:09:48.345Z,8.1
2022-11-09T08:14:50.330Z,8
2022-11-09T08:19:52.346Z,8
2022-11-09T08:24:54.555Z,7.9
2022-11-09T08:29:56.876Z,7.9
2022-11-09T08:34:59.170Z,7.9
2022-11-09T08:40:01.112Z,8
2022-11-09T08:45:03.115Z,8
2022-11-09T08:50:05.344Z,8.2
2022-11-09T08:55:07.513Z,8.2
2022-11-09T09:00:09.517Z,8.3
2022-11-09T09:05:11.552Z,8.3
2022-11-09T09:10:13.476Z,8.4
2022-11-09T09:15:15.652Z,8.3
2022-11-09T09:20:17.579Z,8.4
2022-11-09T09:25:20.117Z,8.4
2022-11-09T09:30:22.506Z,8.4
2022-11-09T09:35:24.676Z,8.4
2022-11-09T09:40:27.279Z,8.5
2022-11-09T09:45:29.358Z,8.7
2022-11-09T09:50:31.569Z,8.7
2022-11-09T09:55:33.669Z,8.7
2022-11-09T10:00:35.833Z,8.7
2022-11-09T10:05:37.801Z,8.6
2022-11-09T10:10:39.891Z,8.6
2022-11-09T10:15:42.307Z,8.7
2022-11-09T10:20:44.512Z,8.7
2022-11-09T10:26:10.065Z,9
2022-11-09T10:30:47.647Z,8.8
2022-11-09T10:35:49.574Z,8.8
2022-11-09T10:40:51.563Z,9.2
2022-11-09T10:45:53.795Z,9
2022-11-09T10:50:55.886Z,9.1
2022-11-09T10:55:57.917Z,9.3
2022-11-09T11:01:00.465Z,9.5
2022-11-09T11:06:02.516Z,9.5
2022-11-09T11:11:37.357Z,9.3
2022-11-09T11:16:10.088Z,9.3
2022-11-09T11:21:20.380Z,9.4
2022-11-09T11:26:12.696Z,9.4
2022-11-09T11:31:14.735Z,9.3
2022-11-09T11:36:16.873Z,9.6
2022-11-09T11:41:18.807Z,9.8
2022-11-09T11:46:20.735Z,10
2022-11-09T11:51:22.689Z,9.8
2022-11-09T11:56:24.822Z,9.7
2022-11-09T12:01:26.802Z,9.8
2022-11-09T12:06:29.320Z,9.9
2022-11-09T12:11:31.412Z,9.9
2022-11-09T12:17:57.223Z,10
2022-11-09T12:21:39.301Z,9.8
2022-11-09T12:26:41.466Z,9.9
2022-11-09T12:31:43.498Z,10
2022-11-09T12:36:45.578Z,10.1
2022-11-09T12:41:47.526Z,10
2022-11-09T12:46:50.143Z,10.1
2022-11-09T12:52:00.015Z,10.3
2022-11-09T12:57:02.090Z,10.3
2022-11-09T13:02:04.275Z,10.1
2022-11-09T13:07:06.633Z,10.2
2022-11-09T13:12:15.918Z,10.3
2022-11-09T13:17:18.028Z,10.3
2022-11-09T13:22:19.989Z,10.4
2022-11-09T13:27:21.942Z,10.5
2022-11-09T13:32:24.018Z,10.5
2022-11-09T13:37:26.005Z,10.5
2022-11-09T13:42:28.277Z,10.5
2022-11-09T13:47:30.237Z,10.5
2022-11-09T13:52:32.249Z,10.5
2022-11-09T13:57:34.232Z,10.7
2022-11-09T14:02:36.165Z,10.6
2022-11-09T14:07:38.083Z,10.5
2022-11-09T14:12:40.174Z,10.5
2022-11-09T14:17:42.108Z,10.6
2022-11-09T14:22:44.053Z,10.6
2022-11-09T14:27:46.420Z,10.6
2022-11-09T14:37:49.347Z,10.5
2022-11-09T14:42:52.015Z,10.5
2022-11-09T14:47:54.386Z,10.5
2022-11-09T14:52:56.372Z,10.5
2022-11-09T14:57:58.381Z,10.5
2022-11-09T15:03:00.381Z,10.4
2022-11-09T15:08:02.242Z,10.5
2022-11-09T15:13:04.149Z,10.5
2022-11-09T15:18:06.106Z,10.6
2022-11-09T15:23:08.491Z,10.6
2022-11-09T15:28:13.671Z,10.7
2022-11-09T15:33:15.905Z,10.6
2022-11-09T15:38:17.949Z,10.7
2022-11-09T15:43:20.488Z,10.7
2022-11-09T15:48:24.049Z,10.8
2022-11-09T15:53:26.073Z,10.8
2022-11-09T15:58:28.062Z,10.8
2022-11-09T16:03:29.992Z,10.8
2022-11-09T16:08:31.995Z,10.9
2022-11-09T16:13:33.953Z,10.9
2022-11-09T16:18:35.960Z,10.9
2022-11-09T16:23:37.993Z,10.9
2022-11-09T16:28:40.245Z,10.9
2022-11-09T16:33:42.395Z,10.9
2022-11-09T16:38:44.964Z,10.9
2022-11-09T16:43:46.988Z,10.9
2022-11-09T16:48:49.073Z,10.9
2022-11-09T16:53:51.418Z,11
2022-11-09T16:58:53.879Z,11
2022-11-09T17:03:55.788Z,11
2022-11-09T17:08:58.417Z,11.1
2022-11-09T17:14:00.440Z,11.1
2022-11-09T17:19:02.508Z,11.1
2022-11-09T17:24:04.600Z,11.2
2022-11-09T17:29:06.996Z,11.2
2022-11-09T17:34:08.934Z,11.2
2022-11-09T17:39:11.115Z,11.2
2022-11-09T17:44:13.047Z,11.2
2022-11-09T17:49:15.049Z,11.2
2022-11-09T17:54:17.056Z,11.2
2022-11-09T17:59:19.039Z,11.2
2022-11-09T18:04:21.036Z,11.2
2022-11-09T18:09:53.210Z,11.2
2022-11-09T18:14:25.231Z,11.2
2022-11-09T18:19:27.251Z,11.2
2022-11-09T18:24:29.286Z,11.2
2022-11-09T18:29:31.468Z,11.2
2022-11-09T18:34:33.521Z,11.2
2022-11-09T18:39:35.573Z,11.1
2022-11-09T18:44:37.582Z,11.1
2022-11-09T18:49:39.532Z,11.1
2022-11-09T18:54:41.889Z,11.2
2022-11-09T18:59:43.919Z,11.2
2022-11-09T19:04:45.807Z,11.2
2022-11-09T19:09:48.486Z,11.2
2022-11-09T19:14:56.713Z,11.2
2022-11-09T19:19:58.694Z,11.2
2022-11-09T19:25:03.146Z,11.2
2022-11-09T19:30:11.447Z,11.3
2022-11-09T19:35:13.492Z,11.3
2022-11-09T19:40:15.663Z,11.4
2022-11-09T19:45:18.916Z,11.4
2022-11-09T19:50:21.035Z,11.3
2022-11-09T19:55:23.494Z,11.4
2022-11-09T20:00:25.433Z,11.3
2022-11-09T20:05:27.377Z,11.3
2022-11-09T20:10:29.307Z,11.4
2022-11-09T20:15:31.343Z,11.3
2022-11-09T20:20:33.356Z,11.3
2022-11-09T20:25:36.794Z,11.3
2022-11-09T22:46:02.255Z,11.4
2022-11-09T22:51:04.643Z,11.4
2022-11-09T22:56:06.640Z,11.4
2022-11-09T23:01:09.079Z,11.4
2022-11-09T23:06:11.186Z,11.4
2022-11-09T23:11:13.310Z,11.4
2022-11-09T23:16:15.258Z,11.5
2022-11-09T23:21:17.183Z,11.5
2022-11-09T23:26:19.233Z,11.6
2022-11-09T23:31:21.191Z,11.6
2022-11-09T23:36:23.235Z,11.6
2022-11-09T23:41:25.230Z,11.7
2022-11-09T23:46:27.662Z,11.8
2022-11-09T23:51:30.028Z,11.7
